sensor_id;sensor_type;location;lat;lon;timestamp;P1;P2;P0
75946;PMS5003;64628;50.104;14.614;2022-12-29T00:00:25;11;8;
75946;PMS5003;64628;50.104;14.614;2022-12-29T00:02:50;12;8;
75946;PMS5003;64628;50.104;14.614;2022-12-29T00:05:16;15;15;
75946;PMS5003;64628;50.104;14.614;2022-12-29T00:07:41;9;8;
75946;PMS5003;64628;50.104;14.614;2022-12-29T00:10:07;9;9;
75946;PMS5003;64628;50.104;14.614;2022-12-29T00:12:32;8;8;
75946;PMS5003;64628;50.104;14.614;2022-12-29T00:14:58;12;8;
75946;PMS5003;64628;50.104;14.614;2022-12-29T00:17:23;7;6;
75946;PMS5003;64628;50.104;14.614;2022-12-29T00:19:49;9;8;
75946;PMS5003;64628;50.104;14.614;2022-12-29T00:22:14;12;8;
75946;PMS5003;64628;50.104;14.614;2022-12-29T00:24:40;9;6;
75946;PMS5003;64628;50.104;14.614;2022-12-29T00:27:10;7;7;
75946;PMS5003;64628;50.104;14.614;2022-12-29T00:29:31;9;8;
75946;PMS5003;64628;50.104;14.614;2022-12-29T00:31:56;6;6;
75946;PMS5003;64628;50.104;14.614;2022-12-29T00:34:22;6;4;
75946;PMS5003;64628;50.104;14.614;2022-12-29T00:36:47;10;9;
75946;PMS5003;64628;50.104;14.614;2022-12-29T00:39:13;10;8;
75946;PMS5003;64628;50.104;14.614;2022-12-29T00:41:38;12;8;
75946;PMS5003;64628;50.104;14.614;2022-12-29T00:44:04;9;6;
75946;PMS5003;64628;50.104;14.614;2022-12-29T00:46:29;7;4;
75946;PMS5003;64628;50.104;14.614;2022-12-29T00:48:56;7;7;
75946;PMS5003;64628;50.104;14.614;2022-12-29T00:51:20;6;6;
75946;PMS5003;64628;50.104;14.614;2022-12-29T00:53:46;7;7;
75946;PMS5003;64628;50.104;14.614;2022-12-29T00:56:11;9;7;
75946;PMS5003;64628;50.104;14.614;2022-12-29T00:58:37;8;7;
75946;PMS5003;64628;50.104;14.614;2022-12-29T01:01:02;14;9;
75946;PMS5003;64628;50.104;14.614;2022-12-29T01:03:27;9;8;
75946;PMS5003;64628;50.104;14.614;2022-12-29T01:05:53;10;8;
75946;PMS5003;64628;50.104;14.614;2022-12-29T01:08:18;10;6;
75946;PMS5003;64628;50.104;14.614;2022-12-29T01:10:44;8;4;
75946;PMS5003;64628;50.104;14.614;2022-12-29T01:13:09;8;6;
75946;PMS5003;64628;50.104;14.614;2022-12-29T01:15:35;6;6;
75946;PMS5003;64628;50.104;14.614;2022-12-29T01:18:00;12;8;
75946;PMS5003;64628;50.104;14.614;2022-12-29T01:20:26;7;6;
75946;PMS5003;64628;50.104;14.614;2022-12-29T01:22:51;9;7;
75946;PMS5003;64628;50.104;14.614;2022-12-29T01:25:17;8;6;
75946;PMS5003;64628;50.104;14.614;2022-12-29T01:27:42;7;6;
75946;PMS5003;64628;50.104;14.614;2022-12-29T01:30:08;10;8;
75946;PMS5003;64628;50.104;14.614;2022-12-29T01:32:33;12;9;
75946;PMS5003;64628;50.104;14.614;2022-12-29T01:34:59;12;9;
75946;PMS5003;64628;50.104;14.614;2022-12-29T01:37:24;13;9;
75946;PMS5003;64628;50.104;14.614;2022-12-29T01:39:50;8;7;
75946;PMS5003;64628;50.104;14.614;2022-12-29T01:42:16;6;6;
75946;PMS5003;64628;50.104;14.614;2022-12-29T01:44:48;8;8;
75946;PMS5003;64628;50.104;14.614;2022-12-29T01:47:06;9;8;
75946;PMS5003;64628;50.104;14.614;2022-12-29T01:49:32;8;7;
75946;PMS5003;64628;50.104;14.614;2022-12-29T01:51:57;9;7;
75946;PMS5003;64628;50.104;14.614;2022-12-29T01:54:24;12;7;
75946;PMS5003;64628;50.104;14.614;2022-12-29T01:56:48;9;6;
75946;PMS5003;64628;50.104;14.614;2022-12-29T01:59:15;9;8;
75946;PMS5003;64628;50.104;14.614;2022-12-29T02:01:39;9;8;
75946;PMS5003;64628;50.104;14.614;2022-12-29T02:04:04;7;4;
75946;PMS5003;64628;50.104;14.614;2022-12-29T02:06:32;12;8;
75946;PMS5003;64628;50.104;14.614;2022-12-29T02:08:55;8;6;
75946;PMS5003;64628;50.104;14.614;2022-12-29T02:11:21;14;9;
75946;PMS5003;64628;50.104;14.614;2022-12-29T02:13:46;7;7;
75946;PMS5003;64628;50.104;14.614;2022-12-29T02:16:15;12;7;
75946;PMS5003;64628;50.104;14.614;2022-12-29T02:18:39;7;6;
75946;PMS5003;64628;50.104;14.614;2022-12-29T02:23:32;6;6;
75946;PMS5003;64628;50.104;14.614;2022-12-29T02:25:59;7;6;
75946;PMS5003;64628;50.104;14.614;2022-12-29T02:30:45;6;6;
75946;PMS5003;64628;50.104;14.614;2022-12-29T02:33:13;7;6;
75946;PMS5003;64628;50.104;14.614;2022-12-29T02:35:35;6;6;
75946;PMS5003;64628;50.104;14.614;2022-12-29T02:38:03;6;6;
75946;PMS5003;64628;50.104;14.614;2022-12-29T02:40:29;7;6;
75946;PMS5003;64628;50.104;14.614;2022-12-29T02:42:54;7;6;
75946;PMS5003;64628;50.104;14.614;2022-12-29T02:45:19;3;3;
75946;PMS5003;64628;50.104;14.614;2022-12-29T02:47:45;6;6;
75946;PMS5003;64628;50.104;14.614;2022-12-29T02:50:10;7;7;
75946;PMS5003;64628;50.104;14.614;2022-12-29T02:52:34;8;4;
75946;PMS5003;64628;50.104;14.614;2022-12-29T02:54:59;8;7;
75946;PMS5003;64628;50.104;14.614;2022-12-29T02:57:29;8;6;
75946;PMS5003;64628;50.104;14.614;2022-12-29T02:59:51;6;4;
75946;PMS5003;64628;50.104;14.614;2022-12-29T03:02:20;4;3;
75946;PMS5003;64628;50.104;14.614;2022-12-29T03:04:43;3;3;
75946;PMS5003;64628;50.104;14.614;2022-12-29T03:07:08;7;6;
75946;PMS5003;64628;50.104;14.614;2022-12-29T03:09:34;7;4;
75946;PMS5003;64628;50.104;14.614;2022-12-29T03:11:58;8;4;
75946;PMS5003;64628;50.104;14.614;2022-12-29T03:14:24;8;7;
75946;PMS5003;64628;50.104;14.614;2022-12-29T03:16:48;6;4;
75946;PMS5003;64628;50.104;14.614;2022-12-29T03:19:14;8;8;
75946;PMS5003;64628;50.104;14.614;2022-12-29T03:21:39;10;7;
75946;PMS5003;64628;50.104;14.614;2022-12-29T03:24:04;7;4;
75946;PMS5003;64628;50.104;14.614;2022-12-29T03:26:29;7;7;
75946;PMS5003;64628;50.104;14.614;2022-12-29T03:28:54;4;3;
75946;PMS5003;64628;50.104;14.614;2022-12-29T03:31:20;3;3;
75946;PMS5003;64628;50.104;14.614;2022-12-29T03:33:45;9;7;
75946;PMS5003;64628;50.104;14.614;2022-12-29T03:36:14;9;6;
75946;PMS5003;64628;50.104;14.614;2022-12-29T03:38:39;9;6;
75946;PMS5003;64628;50.104;14.614;2022-12-29T03:41:03;7;7;
75946;PMS5003;64628;50.104;14.614;2022-12-29T03:43:27;9;7;
75946;PMS5003;64628;50.104;14.614;2022-12-29T03:45:52;7;7;
75946;PMS5003;64628;50.104;14.614;2022-12-29T03:48:17;8;7;
75946;PMS5003;64628;50.104;14.614;2022-12-29T03:50:43;7;7;
75946;PMS5003;64628;50.104;14.614;2022-12-29T03:53:08;9;8;
75946;PMS5003;64628;50.104;14.614;2022-12-29T03:55:34;7;4;
75946;PMS5003;64628;50.104;14.614;2022-12-29T03:57:59;6;4;
75946;PMS5003;64628;50.104;14.614;2022-12-29T04:00:25;7;4;
75946;PMS5003;64628;50.104;14.614;2022-12-29T04:02:51;6;6;
75946;PMS5003;64628;50.104;14.614;2022-12-29T04:05:16;4;3;
75946;PMS5003;64628;50.104;14.614;2022-12-29T04:07:41;12;3;
75946;PMS5003;64628;50.104;14.614;2022-12-29T04:10:07;3;3;
75946;PMS5003;64628;50.104;14.614;2022-12-29T04:12:32;6;6;
75946;PMS5003;64628;50.104;14.614;2022-12-29T04:14:58;6;3;
75946;PMS5003;64628;50.104;14.614;2022-12-29T04:17:23;8;3;
75946;PMS5003;64628;50.104;14.614;2022-12-29T04:19:49;6;4;
75946;PMS5003;64628;50.104;14.614;2022-12-29T04:22:15;16;13;
75946;PMS5003;64628;50.104;14.614;2022-12-29T04:24:40;8;4;
75946;PMS5003;64628;50.104;14.614;2022-12-29T04:27:05;7;6;
75946;PMS5003;64628;50.104;14.614;2022-12-29T04:29:31;7;4;
75946;PMS5003;64628;50.104;14.614;2022-12-29T04:31:56;7;3;
75946;PMS5003;64628;50.104;14.614;2022-12-29T04:34:22;3;3;
75946;PMS5003;64628;50.104;14.614;2022-12-29T04:36:47;3;3;
75946;PMS5003;64628;50.104;14.614;2022-12-29T04:39:13;7;4;
75946;PMS5003;64628;50.104;14.614;2022-12-29T04:41:38;4;3;
75946;PMS5003;64628;50.104;14.614;2022-12-29T04:44:04;3;3;
75946;PMS5003;64628;50.104;14.614;2022-12-29T04:46:29;4;4;
75946;PMS5003;64628;50.104;14.614;2022-12-29T04:48:55;3;3;
75946;PMS5003;64628;50.104;14.614;2022-12-29T04:51:20;5;4;
75946;PMS5003;64628;50.104;14.614;2022-12-29T04:53:45;7;5;
75946;PMS5003;64628;50.104;14.614;2022-12-29T04:56:11;4;4;
75946;PMS5003;64628;50.104;14.614;2022-12-29T04:58:36;4;4;
75946;PMS5003;64628;50.104;14.614;2022-12-29T05:01:02;11;7;
75946;PMS5003;64628;50.104;14.614;2022-12-29T05:03:27;7;4;
75946;PMS5003;64628;50.104;14.614;2022-12-29T05:05:53;3;3;
75946;PMS5003;64628;50.104;14.614;2022-12-29T05:08:18;8;7;
75946;PMS5003;64628;50.104;14.614;2022-12-29T05:10:44;8;8;
75946;PMS5003;64628;50.104;14.614;2022-12-29T05:13:08;2;2;
75946;PMS5003;64628;50.104;14.614;2022-12-29T05:15:34;7;5;
75946;PMS5003;64628;50.104;14.614;2022-12-29T05:17:59;3;3;
75946;PMS5003;64628;50.104;14.614;2022-12-29T05:20:25;5;5;
75946;PMS5003;64628;50.104;14.614;2022-12-29T05:22:50;4;3;
75946;PMS5003;64628;50.104;14.614;2022-12-29T05:25:15;4;3;
75946;PMS5003;64628;50.104;14.614;2022-12-29T05:27:41;5;3;
75946;PMS5003;64628;50.104;14.614;2022-12-29T05:30:07;7;4;
75946;PMS5003;64628;50.104;14.614;2022-12-29T05:32:32;4;4;
75946;PMS5003;64628;50.104;14.614;2022-12-29T05:34:57;5;3;
75946;PMS5003;64628;50.104;14.614;2022-12-29T05:37:22;7;4;
75946;PMS5003;64628;50.104;14.614;2022-12-29T05:39:48;4;4;
75946;PMS5003;64628;50.104;14.614;2022-12-29T05:42:13;4;4;
75946;PMS5003;64628;50.104;14.614;2022-12-29T05:44:39;3;3;
75946;PMS5003;64628;50.104;14.614;2022-12-29T05:47:04;3;3;
75946;PMS5003;64628;50.104;14.614;2022-12-29T05:49:29;4;3;
75946;PMS5003;64628;50.104;14.614;2022-12-29T05:51:55;5;5;
75946;PMS5003;64628;50.104;14.614;2022-12-29T05:54:20;7;5;
75946;PMS5003;64628;50.104;14.614;2022-12-29T05:56:45;4;4;
75946;PMS5003;64628;50.104;14.614;2022-12-29T05:59:11;4;4;
75946;PMS5003;64628;50.104;14.614;2022-12-29T06:01:36;8;5;
75946;PMS5003;64628;50.104;14.614;2022-12-29T06:04:02;7;3;
75946;PMS5003;64628;50.104;14.614;2022-12-29T06:06:27;5;4;
75946;PMS5003;64628;50.104;14.614;2022-12-29T06:08:52;4;3;
75946;PMS5003;64628;50.104;14.614;2022-12-29T06:11:18;5;4;
75946;PMS5003;64628;50.104;14.614;2022-12-29T06:13:43;5;4;
75946;PMS5003;64628;50.104;14.614;2022-12-29T06:16:09;4;4;
75946;PMS5003;64628;50.104;14.614;2022-12-29T06:18:34;1;1;
75946;PMS5003;64628;50.104;14.614;2022-12-29T06:21:00;4;3;
75946;PMS5003;64628;50.104;14.614;2022-12-29T06:23:25;5;3;
75946;PMS5003;64628;50.104;14.614;2022-12-29T06:25:50;3;3;
75946;PMS5003;64628;50.104;14.614;2022-12-29T06:28:16;4;4;
75946;PMS5003;64628;50.104;14.614;2022-12-29T06:30:42;5;3;
75946;PMS5003;64628;50.104;14.614;2022-12-29T06:33:07;8;4;
75946;PMS5003;64628;50.104;14.614;2022-12-29T06:35:32;4;3;
75946;PMS5003;64628;50.104;14.614;2022-12-29T06:37:57;4;3;
75946;PMS5003;64628;50.104;14.614;2022-12-29T06:40:23;4;4;
75946;PMS5003;64628;50.104;14.614;2022-12-29T06:42:48;3;3;
75946;PMS5003;64628;50.104;14.614;2022-12-29T06:45:14;2;2;
75946;PMS5003;64628;50.104;14.614;2022-12-29T06:47:39;4;3;
75946;PMS5003;64628;50.104;14.614;2022-12-29T06:50:05;4;4;
75946;PMS5003;64628;50.104;14.614;2022-12-29T06:52:30;5;3;
75946;PMS5003;64628;50.104;14.614;2022-12-29T06:54:55;8;5;
75946;PMS5003;64628;50.104;14.614;2022-12-29T06:57:21;7;4;
75946;PMS5003;64628;50.104;14.614;2022-12-29T06:59:46;3;3;
75946;PMS5003;64628;50.104;14.614;2022-12-29T07:02:12;2;2;
75946;PMS5003;64628;50.104;14.614;2022-12-29T07:04:37;3;3;
75946;PMS5003;64628;50.104;14.614;2022-12-29T07:07:03;3;2;
75946;PMS5003;64628;50.104;14.614;2022-12-29T07:09:28;4;4;
75946;PMS5003;64628;50.104;14.614;2022-12-29T07:11:53;4;4;
75946;PMS5003;64628;50.104;14.614;2022-12-29T07:14:19;5;3;
75946;PMS5003;64628;50.104;14.614;2022-12-29T07:16:44;9;8;
75946;PMS5003;64628;50.104;14.614;2022-12-29T07:19:09;13;8;
75946;PMS5003;64628;50.104;14.614;2022-12-29T07:21:35;26;18;
75946;PMS5003;64628;50.104;14.614;2022-12-29T07:24:00;5;5;
75946;PMS5003;64628;50.104;14.614;2022-12-29T07:26:26;5;4;
75946;PMS5003;64628;50.104;14.614;2022-12-29T07:28:51;5;4;
75946;PMS5003;64628;50.104;14.614;2022-12-29T07:31:17;5;5;
75946;PMS5003;64628;50.104;14.614;2022-12-29T07:33:42;5;4;
75946;PMS5003;64628;50.104;14.614;2022-12-29T07:36:07;3;3;
75946;PMS5003;64628;50.104;14.614;2022-12-29T07:38:33;4;4;
75946;PMS5003;64628;50.104;14.614;2022-12-29T07:40:58;1;1;
75946;PMS5003;64628;50.104;14.614;2022-12-29T07:43:24;4;3;
75946;PMS5003;64628;50.104;14.614;2022-12-29T07:45:49;3;3;
75946;PMS5003;64628;50.104;14.614;2022-12-29T07:48:14;3;3;
75946;PMS5003;64628;50.104;14.614;2022-12-29T07:50:40;7;5;
75946;PMS5003;64628;50.104;14.614;2022-12-29T07:53:05;2;2;
75946;PMS5003;64628;50.104;14.614;2022-12-29T07:55:31;3;3;
75946;PMS5003;64628;50.104;14.614;2022-12-29T07:57:56;4;4;
75946;PMS5003;64628;50.104;14.614;2022-12-29T08:00:22;8;7;
75946;PMS5003;64628;50.104;14.614;2022-12-29T08:02:47;3;3;
75946;PMS5003;64628;50.104;14.614;2022-12-29T08:05:12;3;3;
75946;PMS5003;64628;50.104;14.614;2022-12-29T08:07:38;3;3;
75946;PMS5003;64628;50.104;14.614;2022-12-29T08:10:04;3;3;
75946;PMS5003;64628;50.104;14.614;2022-12-29T08:12:28;4;4;
75946;PMS5003;64628;50.104;14.614;2022-12-29T08:14:54;4;3;
75946;PMS5003;64628;50.104;14.614;2022-12-29T08:17:19;5;5;
75946;PMS5003;64628;50.104;14.614;2022-12-29T08:19:45;3;3;
75946;PMS5003;64628;50.104;14.614;2022-12-29T08:22:10;2;2;
75946;PMS5003;64628;50.104;14.614;2022-12-29T08:24:36;3;3;
75946;PMS5003;64628;50.104;14.614;2022-12-29T08:27:01;8;3;
75946;PMS5003;64628;50.104;14.614;2022-12-29T08:29:26;2;2;
75946;PMS5003;64628;50.104;14.614;2022-12-29T08:31:52;9;3;
75946;PMS5003;64628;50.104;14.614;2022-12-29T08:34:17;3;3;
75946;PMS5003;64628;50.104;14.614;2022-12-29T08:36:43;3;2;
75946;PMS5003;64628;50.104;14.614;2022-12-29T08:39:08;3;2;
75946;PMS5003;64628;50.104;14.614;2022-12-29T08:41:33;2;2;
75946;PMS5003;64628;50.104;14.614;2022-12-29T08:43:59;5;3;
75946;PMS5003;64628;50.104;14.614;2022-12-29T08:46:24;3;3;
75946;PMS5003;64628;50.104;14.614;2022-12-29T08:48:50;8;6;
75946;PMS5003;64628;50.104;14.614;2022-12-29T08:51:15;6;5;
75946;PMS5003;64628;50.104;14.614;2022-12-29T08:53:40;2;2;
75946;PMS5003;64628;50.104;14.614;2022-12-29T08:56:06;4;4;
75946;PMS5003;64628;50.104;14.614;2022-12-29T08:58:31;4;4;
75946;PMS5003;64628;50.104;14.614;2022-12-29T09:00:57;5;5;
75946;PMS5003;64628;50.104;14.614;2022-12-29T09:03:22;5;4;
75946;PMS5003;64628;50.104;14.614;2022-12-29T09:05:48;4;4;
75946;PMS5003;64628;50.104;14.614;2022-12-29T09:08:13;5;5;
75946;PMS5003;64628;50.104;14.614;2022-12-29T09:10:38;6;5;
75946;PMS5003;64628;50.104;14.614;2022-12-29T09:13:03;11;5;
75946;PMS5003;64628;50.104;14.614;2022-12-29T09:15:29;6;5;
75946;PMS5003;64628;50.104;14.614;2022-12-29T09:17:54;5;5;
75946;PMS5003;64628;50.104;14.614;2022-12-29T09:20:19;3;2;
75946;PMS5003;64628;50.104;14.614;2022-12-29T09:22:45;3;3;
75946;PMS5003;64628;50.104;14.614;2022-12-29T09:25:11;7;5;
75946;PMS5003;64628;50.104;14.614;2022-12-29T09:27:36;4;3;
75946;PMS5003;64628;50.104;14.614;2022-12-29T09:30:01;9;5;
75946;PMS5003;64628;50.104;14.614;2022-12-29T09:32:26;5;5;
75946;PMS5003;64628;50.104;14.614;2022-12-29T09:34:52;9;7;
75946;PMS5003;64628;50.104;14.614;2022-12-29T09:37:17;8;5;
75946;PMS5003;64628;50.104;14.614;2022-12-29T09:39:42;5;4;
75946;PMS5003;64628;50.104;14.614;2022-12-29T09:42:08;9;9;
75946;PMS5003;64628;50.104;14.614;2022-12-29T09:44:38;6;6;
75946;PMS5003;64628;50.104;14.614;2022-12-29T09:46:58;7;6;
75946;PMS5003;64628;50.104;14.614;2022-12-29T09:49:25;6;6;
75946;PMS5003;64628;50.104;14.614;2022-12-29T09:51:50;6;3;
75946;PMS5003;64628;50.104;14.614;2022-12-29T09:54:20;4;4;
75946;PMS5003;64628;50.104;14.614;2022-12-29T09:56:39;6;5;
75946;PMS5003;64628;50.104;14.614;2022-12-29T09:59:08;12;6;
75946;PMS5003;64628;50.104;14.614;2022-12-29T10:01:31;4;4;
75946;PMS5003;64628;50.104;14.614;2022-12-29T10:03:56;4;4;
75946;PMS5003;64628;50.104;14.614;2022-12-29T10:06:22;7;6;
75946;PMS5003;64628;50.104;14.614;2022-12-29T10:08:47;6;4;
75946;PMS5003;64628;50.104;14.614;2022-12-29T10:11:14;2;2;
75946;PMS5003;64628;50.104;14.614;2022-12-29T10:13:39;8;6;
75946;PMS5003;64628;50.104;14.614;2022-12-29T10:16:02;7;5;
75946;PMS5003;64628;50.104;14.614;2022-12-29T10:18:32;7;6;
75946;PMS5003;64628;50.104;14.614;2022-12-29T10:20:53;10;6;
75946;PMS5003;64628;50.104;14.614;2022-12-29T10:23:22;4;4;
75946;PMS5003;64628;50.104;14.614;2022-12-29T10:25:48;7;6;
75946;PMS5003;64628;50.104;14.614;2022-12-29T10:28:14;6;5;
75946;PMS5003;64628;50.104;14.614;2022-12-29T10:30:34;5;5;
75946;PMS5003;64628;50.104;14.614;2022-12-29T10:33:01;4;3;
75946;PMS5003;64628;50.104;14.614;2022-12-29T10:35:26;4;4;
75946;PMS5003;64628;50.104;14.614;2022-12-29T10:37:51;5;5;
75946;PMS5003;64628;50.104;14.614;2022-12-29T10:40:18;8;6;
75946;PMS5003;64628;50.104;14.614;2022-12-29T10:42:40;4;3;
75946;PMS5003;64628;50.104;14.614;2022-12-29T10:45:07;8;5;
75946;PMS5003;64628;50.104;14.614;2022-12-29T10:47:32;6;6;
75946;PMS5003;64628;50.104;14.614;2022-12-29T10:49:57;3;3;
75946;PMS5003;64628;50.104;14.614;2022-12-29T10:52:21;5;5;
75946;PMS5003;64628;50.104;14.614;2022-12-29T10:54:48;5;5;
75946;PMS5003;64628;50.104;14.614;2022-12-29T10:57:13;4;4;
75946;PMS5003;64628;50.104;14.614;2022-12-29T10:59:37;7;5;
75946;PMS5003;64628;50.104;14.614;2022-12-29T11:02:23;5;5;
75946;PMS5003;64628;50.104;14.614;2022-12-29T11:04:33;5;4;
75946;PMS5003;64628;50.104;14.614;2022-12-29T11:06:53;7;6;
75946;PMS5003;64628;50.104;14.614;2022-12-29T11:09:21;5;5;
75946;PMS5003;64628;50.104;14.614;2022-12-29T11:11:44;6;6;
75946;PMS5003;64628;50.104;14.614;2022-12-29T11:14:11;11;7;
75946;PMS5003;64628;50.104;14.614;2022-12-29T11:16:34;9;9;
75946;PMS5003;64628;50.104;14.614;2022-12-29T11:19:00;9;7;
75946;PMS5003;64628;50.104;14.614;2022-12-29T11:21:27;12;9;
75946;PMS5003;64628;50.104;14.614;2022-12-29T11:23:55;7;5;
75946;PMS5003;64628;50.104;14.614;2022-12-29T11:26:17;7;6;
75946;PMS5003;64628;50.104;14.614;2022-12-29T11:28:42;13;6;
75946;PMS5003;64628;50.104;14.614;2022-12-29T11:31:07;6;6;
75946;PMS5003;64628;50.104;14.614;2022-12-29T11:33:32;8;8;
75946;PMS5003;64628;50.104;14.614;2022-12-29T11:35:57;10;7;
75946;PMS5003;64628;50.104;14.614;2022-12-29T11:38:23;8;8;
75946;PMS5003;64628;50.104;14.614;2022-12-29T11:40:48;8;7;
75946;PMS5003;64628;50.104;14.614;2022-12-29T11:48:14;8;8;
75946;PMS5003;64628;50.104;14.614;2022-12-29T12:31:47;5;5;
75946;PMS5003;64628;50.104;14.614;2022-12-29T12:38:57;17;16;
75946;PMS5003;64628;50.104;14.614;2022-12-29T12:41:24;8;8;
75946;PMS5003;64628;50.104;14.614;2022-12-29T12:48:42;5;5;
75946;PMS5003;64628;50.104;14.614;2022-12-29T13:10:32;8;5;
75946;PMS5003;64628;50.104;14.614;2022-12-29T13:15:29;5;5;
75946;PMS5003;64628;50.104;14.614;2022-12-29T13:25:05;4;4;
75946;PMS5003;64628;50.104;14.614;2022-12-29T13:27:21;7;4;
75946;PMS5003;64628;50.104;14.614;2022-12-29T13:32:15;5;4;
75946;PMS5003;64628;50.104;14.614;2022-12-29T13:34:44;4;4;
75946;PMS5003;64628;50.104;14.614;2022-12-29T13:41:53;6;6;
75946;PMS5003;64628;50.104;14.614;2022-12-29T14:06:10;6;5;
75946;PMS5003;64628;50.104;14.614;2022-12-29T14:49:40;9;8;
75946;PMS5003;64628;50.104;14.614;2022-12-29T14:56:57;16;12;
75946;PMS5003;64628;50.104;14.614;2022-12-29T14:59:20;7;7;
75946;PMS5003;64628;50.104;14.614;2022-12-29T15:01:47;13;10;
75946;PMS5003;64628;50.104;14.614;2022-12-29T15:04:15;7;7;
75946;PMS5003;64628;50.104;14.614;2022-12-29T15:06:41;13;11;
75946;PMS5003;64628;50.104;14.614;2022-12-29T15:16:22;9;7;
75946;PMS5003;64628;50.104;14.614;2022-12-29T15:18:43;11;11;
75946;PMS5003;64628;50.104;14.614;2022-12-29T15:21:11;12;12;
75946;PMS5003;64628;50.104;14.614;2022-12-29T15:23:34;20;17;
75946;PMS5003;64628;50.104;14.614;2022-12-29T15:25:59;10;6;
75946;PMS5003;64628;50.104;14.614;2022-12-29T15:28:25;16;14;
75946;PMS5003;64628;50.104;14.614;2022-12-29T15:30:51;20;16;
75946;PMS5003;64628;50.104;14.614;2022-12-29T15:33:17;15;14;
75946;PMS5003;64628;50.104;14.614;2022-12-29T15:35:40;13;12;
75946;PMS5003;64628;50.104;14.614;2022-12-29T15:45:33;16;13;
75946;PMS5003;64628;50.104;14.614;2022-12-29T15:50:22;28;21;
75946;PMS5003;64628;50.104;14.614;2022-12-29T15:57:37;15;15;
75946;PMS5003;64628;50.104;14.614;2022-12-29T16:14:37;10;7;
75946;PMS5003;64628;50.104;14.614;2022-12-29T16:19:18;5;5;
75946;PMS5003;64628;50.104;14.614;2022-12-29T16:29:05;18;12;
75946;PMS5003;64628;50.104;14.614;2022-12-29T16:31:33;10;6;
75946;PMS5003;64628;50.104;14.614;2022-12-29T16:33:50;6;6;
75946;PMS5003;64628;50.104;14.614;2022-12-29T16:36:32;6;5;
75946;PMS5003;64628;50.104;14.614;2022-12-29T16:38:40;10;7;
75946;PMS5003;64628;50.104;14.614;2022-12-29T16:50:47;12;9;
75946;PMS5003;64628;50.104;14.614;2022-12-29T16:53:17;9;9;
75946;PMS5003;64628;50.104;14.614;2022-12-29T17:02:55;7;4;
75946;PMS5003;64628;50.104;14.614;2022-12-29T17:17:33;6;6;
75946;PMS5003;64628;50.104;14.614;2022-12-29T17:24:53;15;12;
75946;PMS5003;64628;50.104;14.614;2022-12-29T17:29:35;8;8;
75946;PMS5003;64628;50.104;14.614;2022-12-29T17:32:00;10;6;
75946;PMS5003;64628;50.104;14.614;2022-12-29T17:36:51;12;9;
75946;PMS5003;64628;50.104;14.614;2022-12-29T17:39:17;13;10;
75946;PMS5003;64628;50.104;14.614;2022-12-29T17:41:41;9;7;
75946;PMS5003;64628;50.104;14.614;2022-12-29T18:05:57;14;12;
75946;PMS5003;64628;50.104;14.614;2022-12-29T18:20:33;13;13;
75946;PMS5003;64628;50.104;14.614;2022-12-29T18:42:20;13;10;
75946;PMS5003;64628;50.104;14.614;2022-12-29T19:06:35;11;9;
75946;PMS5003;64628;50.104;14.614;2022-12-29T19:26:05;11;10;
75946;PMS5003;64628;50.104;14.614;2022-12-29T19:33:11;13;13;
75946;PMS5003;64628;50.104;14.614;2022-12-29T20:16:51;13;9;
75946;PMS5003;64628;50.104;14.614;2022-12-29T21:31:58;16;15;
75946;PMS5003;64628;50.104;14.614;2022-12-29T21:34:26;16;12;
75946;PMS5003;64628;50.104;14.614;2022-12-29T21:48:54;9;7;
75946;PMS5003;64628;50.104;14.614;2022-12-29T22:08:14;12;11;
75946;PMS5003;64628;50.104;14.614;2022-12-29T22:25:11;10;9;
75946;PMS5003;64628;50.104;14.614;2022-12-29T22:39:47;8;8;
75946;PMS5003;64628;50.104;14.614;2022-12-29T22:42:07;15;13;
75946;PMS5003;64628;50.104;14.614;2022-12-29T22:44:32;12;10;
75946;PMS5003;64628;50.104;14.614;2022-12-29T22:46:58;16;11;
75946;PMS5003;64628;50.104;14.614;2022-12-29T22:49:23;11;10;
75946;PMS5003;64628;50.104;14.614;2022-12-29T22:51:49;11;11;
75946;PMS5003;64628;50.104;14.614;2022-12-29T22:54:14;16;12;
75946;PMS5003;64628;50.104;14.614;2022-12-29T22:56:39;12;11;
75946;PMS5003;64628;50.104;14.614;2022-12-29T22:59:04;12;10;
75946;PMS5003;64628;50.104;14.614;2022-12-29T23:01:30;12;10;
75946;PMS5003;64628;50.104;14.614;2022-12-29T23:03:55;12;10;
75946;PMS5003;64628;50.104;14.614;2022-12-29T23:06:20;11;11;
75946;PMS5003;64628;50.104;14.614;2022-12-29T23:08:46;16;11;
75946;PMS5003;64628;50.104;14.614;2022-12-29T23:11:11;16;15;
75946;PMS5003;64628;50.104;14.614;2022-12-29T23:13:36;16;12;
75946;PMS5003;64628;50.104;14.614;2022-12-29T23:16:02;13;12;
75946;PMS5003;64628;50.104;14.614;2022-12-29T23:18:27;10;10;
75946;PMS5003;64628;50.104;14.614;2022-12-29T23:20:52;15;11;
75946;PMS5003;64628;50.104;14.614;2022-12-29T23:23:18;14;12;
75946;PMS5003;64628;50.104;14.614;2022-12-29T23:25:43;13;9;
75946;PMS5003;64628;50.104;14.614;2022-12-29T23:28:08;13;11;
75946;PMS5003;64628;50.104;14.614;2022-12-29T23:30:34;9;9;
75946;PMS5003;64628;50.104;14.614;2022-12-29T23:32:59;16;11;
75946;PMS5003;64628;50.104;14.614;2022-12-29T23:35:24;13;11;
75946;PMS5003;64628;50.104;14.614;2022-12-29T23:37:50;12;10;
75946;PMS5003;64628;50.104;14.614;2022-12-29T23:40:15;19;12;
75946;PMS5003;64628;50.104;14.614;2022-12-29T23:42:41;12;10;
75946;PMS5003;64628;50.104;14.614;2022-12-29T23:45:06;15;13;
75946;PMS5003;64628;50.104;14.614;2022-12-29T23:47:31;14;11;
75946;PMS5003;64628;50.104;14.614;2022-12-29T23:49:56;13;11;
75946;PMS5003;64628;50.104;14.614;2022-12-29T23:52:21;12;12;
75946;PMS5003;64628;50.104;14.614;2022-12-29T23:54:47;11;9;
75946;PMS5003;64628;50.104;14.614;2022-12-29T23:57:12;10;10;
75946;PMS5003;64628;50.104;14.614;2022-12-29T23:59:38;9;6;
